createdAt,value
2018-06-08T00:00:32.067Z,95336.25
2018-06-08T00:03:02.081Z,95338.13
2018-06-08T00:05:32.055Z,95334.09
2018-06-08T00:08:02.171Z,95329.53
2018-06-08T00:10:32.155Z,95326.06
2018-06-08T00:13:02.178Z,95324.72
2018-06-08T00:15:32.163Z,95327.41
2018-06-08T00:18:02.164Z,95325.78
2018-06-08T00:20:32.165Z,95322.28
2018-06-08T00:23:02.153Z,95320.41
2018-06-08T00:25:32.127Z,95313.44
2018-06-08T00:28:02.109Z,95316.13
2018-06-08T00:30:32.112Z,95316.41
2018-06-08T00:33:02.106Z,95315.06
2018-06-08T00:35:31.689Z,95316.94
2018-06-08T00:38:01.690Z,95314.50
2018-06-08T00:40:31.631Z,95309.41
2018-06-08T00:43:01.670Z,95307.00
2018-06-08T00:45:31.234Z,95311.00
2018-06-08T00:48:01.266Z,95314.78
2018-06-08T00:50:31.239Z,95309.12
2018-06-08T00:53:01.239Z,95304.56
2018-06-08T00:55:31.239Z,95301.09
2018-06-08T00:58:01.279Z,95305.94
2018-06-08T01:00:30.890Z,95302.44
2018-06-08T01:03:00.928Z,95297.06
2018-06-08T01:05:30.914Z,95289.81
2018-06-08T01:08:00.909Z,95288.72
2018-06-08T01:10:30.892Z,95282.28
2018-06-08T01:13:00.943Z,95283.63
2018-06-08T01:15:30.955Z,95282.28
2018-06-08T01:18:00.995Z,95279.06
2018-06-08T01:20:30.981Z,95280.12
2018-06-08T01:23:01.034Z,95279.34
2018-06-08T01:25:30.984Z,95274.75
2018-06-08T01:28:00.988Z,95280.41
2018-06-08T01:30:30.958Z,95281.47
2018-06-08T01:33:01.014Z,95284.41
2018-06-08T01:35:30.964Z,95286.03
2018-06-08T01:38:00.959Z,95189.64
2018-06-08T01:40:30.954Z,95283.34
2018-06-08T01:43:00.984Z,95281.47
2018-06-08T01:45:30.943Z,95286.56
2018-06-08T01:48:00.930Z,95289.81
2018-06-08T01:50:30.906Z,95285.22
2018-06-08T01:53:00.944Z,95281.75
2018-06-08T01:55:30.943Z,95285.22
2018-06-08T01:58:00.937Z,95284.44
2018-06-08T02:00:31.559Z,95281.20
2018-06-08T02:03:01.587Z,95289.81
2018-06-08T02:05:31.572Z,95291.13
2018-06-08T02:08:02.712Z,95292.75
2018-06-08T02:10:32.677Z,95283.87
2018-06-08T02:13:02.722Z,95281.75
2018-06-08T02:15:32.713Z,95282.55
2018-06-08T02:18:04.196Z,95275.02
2018-06-08T02:20:34.186Z,95280.95
2018-06-08T02:23:04.198Z,95282.55
2018-06-08T02:25:34.191Z,95283.64
2018-06-08T02:28:04.187Z,95278.27
2018-06-08T02:30:34.234Z,95276.92
2018-06-08T02:33:04.211Z,95272.89
2018-06-08T02:35:33.840Z,95269.92
2018-06-08T02:38:03.870Z,95278.25
2018-06-08T02:40:34.523Z,95281.22
2018-06-08T02:43:04.585Z,95278.25
2018-06-08T02:45:34.691Z,95273.41
2018-06-08T02:48:05.620Z,95278.25
2018-06-08T02:50:35.776Z,95279.33
2018-06-08T02:53:05.779Z,95287.66
2018-06-08T02:55:35.843Z,95298.39
2018-06-08T02:58:05.894Z,95306.45
2018-06-08T03:00:35.900Z,95305.63
2018-06-08T03:03:06.026Z,95306.70
2018-06-08T03:05:36.123Z,95308.84
2018-06-08T03:08:06.381Z,95308.31
2018-06-08T03:10:36.438Z,95305.87
2018-06-08T03:13:06.510Z,95304.01
2018-06-08T03:15:36.592Z,95304.53
2018-06-08T03:18:06.899Z,95307.50
2018-06-08T03:20:36.930Z,95315.28
2018-06-08T03:23:06.896Z,95315.28
2018-06-08T03:25:36.909Z,95316.11
2018-06-08T03:28:06.542Z,95323.33
2018-06-08T03:30:36.544Z,95317.16
2018-06-08T03:33:06.626Z,95326.84
2018-06-08T03:35:36.949Z,95322.01
2018-06-08T03:38:07.073Z,95323.35
2018-06-08T03:40:37.068Z,95327.66
2018-06-08T03:43:07.350Z,95328.44
2018-06-08T03:45:37.374Z,95323.34
2018-06-08T03:48:07.487Z,95330.03
2018-06-08T03:50:37.472Z,95333.58
2018-06-08T03:53:07.465Z,95336.52
2018-06-08T03:55:40.448Z,95330.06
2018-06-08T03:58:10.470Z,95330.88
2018-06-08T04:00:40.480Z,95333.55
2018-06-08T04:03:10.071Z,95330.08
2018-06-08T04:05:40.086Z,95336.80
2018-06-08T04:08:10.096Z,95340.28
2018-06-08T04:10:40.082Z,95340.27
2018-06-08T04:13:10.059Z,95338.94
2018-06-08T04:15:39.678Z,95338.67
2018-06-08T04:18:09.617Z,95336.53
2018-06-08T04:20:39.646Z,95335.20
2018-06-08T04:23:09.637Z,95339.48
2018-06-08T04:25:39.261Z,95337.88
2018-06-08T04:28:09.297Z,95341.11
2018-06-08T04:30:39.255Z,95341.66
2018-06-08T04:33:09.220Z,95341.92
2018-06-08T04:35:39.242Z,95337.91
2018-06-08T04:38:09.216Z,95337.13
2018-06-08T04:40:39.207Z,95330.38
2018-06-08T04:43:09.125Z,95329.29
2018-06-08T04:45:39.101Z,95331.70
2018-06-08T04:48:09.094Z,95341.09
2018-06-08T04:50:39.076Z,95335.43
2018-06-08T04:53:09.055Z,95337.25
2018-06-08T04:55:39.052Z,95329.41
2018-06-08T04:58:09.010Z,95329.36
2018-06-08T05:00:39.033Z,95332.28
2018-06-08T05:03:08.579Z,95323.61
2018-06-08T05:05:38.610Z,95329.20
2018-06-08T05:08:08.703Z,95321.63
2018-06-08T05:10:38.686Z,95318.84
2018-06-08T05:13:08.252Z,95313.92
2018-06-08T05:15:38.175Z,95316.27
2018-06-08T05:18:08.178Z,95315.60
2018-06-08T05:20:38.152Z,95312.77
2018-06-08T05:23:08.131Z,95311.59
2018-06-08T05:25:38.085Z,95307.98
2018-06-08T05:28:08.096Z,95304.61
2018-06-08T05:30:38.048Z,95307.45
2018-06-08T05:33:08.039Z,95312.73
2018-06-08T05:35:37.996Z,95306.36
2018-06-08T05:38:08.036Z,95304.58
2018-06-08T05:40:38.028Z,95307.68
2018-06-08T05:43:07.747Z,95308.52
2018-06-08T05:45:37.794Z,95316.67
2018-06-08T05:48:07.874Z,95319.19
2018-06-08T05:50:37.566Z,95316.84
2018-06-08T05:53:07.723Z,95316.39
2018-06-08T05:55:37.760Z,95320.06
2018-06-08T05:58:07.788Z,95320.11
2018-06-08T06:00:37.828Z,95326.09
2018-06-08T06:03:08.025Z,95319.98
2018-06-08T06:05:38.347Z,95324.93
2018-06-08T06:08:09.015Z,95332.56
2018-06-08T06:10:39.279Z,95334.55
2018-06-08T06:13:09.961Z,95335.69
2018-06-08T06:15:40.248Z,95325.58
2018-06-08T06:18:10.334Z,95329.09
2018-06-08T06:20:40.374Z,95333.48
2018-06-08T06:23:10.599Z,95332.56
2018-06-08T06:25:40.638Z,95335.44
2018-06-08T06:28:10.751Z,95337.06
2018-06-08T06:30:40.805Z,95337.35
2018-06-08T06:33:10.939Z,95334.80
2018-06-08T06:35:41.398Z,95341.67
2018-06-08T06:38:11.704Z,95335.97
2018-06-08T06:40:41.744Z,95335.27
2018-06-08T06:43:11.780Z,95335.70
2018-06-08T06:45:41.883Z,95339.79
2018-06-08T06:48:12.024Z,95348.90
2018-06-08T06:50:42.120Z,95349.09
2018-06-08T06:53:12.169Z,95352.78
2018-06-08T06:55:43.050Z,95353.05
2018-06-08T06:58:13.056Z,95352.69
2018-06-08T07:00:43.135Z,95352.32
2018-06-08T07:03:13.299Z,95348.62
2018-06-08T07:05:43.428Z,95343.08
2018-06-08T07:08:13.715Z,95339.88
2018-06-08T07:10:43.791Z,95336.47
2018-06-08T07:13:13.811Z,95330.12
2018-06-08T07:15:43.960Z,95338.68
2018-06-08T07:18:14.127Z,95334.42
2018-06-08T07:20:44.225Z,95330.43
2018-06-08T07:23:14.393Z,95333.94
2018-06-08T07:25:44.527Z,95329.13
2018-06-08T07:28:14.552Z,95333.07
2018-06-08T07:30:44.611Z,95334.38
2018-06-08T07:33:14.637Z,95328.45
2018-06-08T07:35:44.704Z,95324.06
2018-06-08T07:38:14.777Z,95327.16
2018-06-08T07:40:44.905Z,95322.48
2018-06-08T07:43:15.061Z,95315.30
2018-06-08T07:45:44.777Z,95319.73
2018-06-08T07:48:14.838Z,95318.67
2018-06-08T07:50:44.885Z,95326.70
2018-06-08T07:53:15.064Z,95313.92
2018-06-08T07:55:45.227Z,95313.53
2018-06-08T07:58:15.438Z,95305.31
2018-06-08T08:00:45.411Z,95311.79
2018-06-08T08:03:15.468Z,95300.03
2018-06-08T08:05:45.448Z,95306.66
2018-06-08T08:08:15.642Z,95298.67
2018-06-08T08:10:45.728Z,95294.83
2018-06-08T08:13:15.761Z,95281.86
2018-06-08T08:15:45.945Z,95276.13
2018-06-08T08:18:15.926Z,95265.58
2018-06-08T08:20:46.546Z,95269.33
2018-06-08T08:23:16.645Z,95258.93
2018-06-08T08:25:46.751Z,95263.34
2018-06-08T08:28:16.780Z,95267.90
2018-06-08T08:30:46.900Z,95275.36
2018-06-08T08:33:16.941Z,95277.11
2018-06-08T08:35:47.061Z,95278.51
2018-06-08T08:38:17.012Z,95277.78
2018-06-08T08:40:47.026Z,95280.20
2018-06-08T08:43:17.075Z,95278.42
2018-06-08T08:45:47.160Z,95282.40
2018-06-08T08:48:17.138Z,95284.70
2018-06-08T08:50:47.221Z,95280.58
2018-06-08T08:53:17.764Z,95294.33
2018-06-08T08:55:47.879Z,95292.24
2018-06-08T08:58:17.931Z,95297.22
2018-06-08T09:00:47.975Z,95295.20
2018-06-08T09:03:17.560Z,95298.01
2018-06-08T09:05:47.638Z,95293.18
2018-06-08T09:08:17.933Z,95297.55
2018-06-08T09:10:48.036Z,95298.67
2018-06-08T09:13:18.087Z,95290.33
2018-06-08T09:15:48.125Z,95291.00
2018-06-08T09:18:18.119Z,95288.63
2018-06-08T09:20:47.747Z,95296.70
2018-06-08T09:23:17.756Z,95289.79
2018-06-08T09:25:47.779Z,95286.63
2018-06-08T09:28:17.787Z,95286.48
2018-06-08T09:30:47.862Z,95295.89
2018-06-08T09:33:17.842Z,95286.34
2018-06-08T09:35:47.849Z,95291.80
2018-06-08T09:38:17.875Z,95283.13
2018-06-08T09:40:47.529Z,95286.40
2018-06-08T09:43:17.542Z,95284.95
2018-06-08T09:45:47.573Z,95286.41
2018-06-08T09:48:17.571Z,95279.55
2018-06-08T09:50:47.597Z,95282.78
2018-06-08T09:53:17.594Z,95288.54
2018-06-08T09:55:47.615Z,95286.55
2018-06-08T09:58:17.221Z,95296.95
2018-06-08T10:00:47.197Z,95285.25
2018-06-08T10:03:17.339Z,95289.72
2018-06-08T10:05:47.369Z,95290.66
2018-06-08T10:08:17.332Z,95291.47
2018-06-08T10:10:47.372Z,95285.41
2018-06-08T10:13:17.340Z,95281.23
2018-06-08T10:15:47.347Z,95285.98
2018-06-08T10:18:17.323Z,95287.05
2018-06-08T10:20:47.345Z,95284.27
2018-06-08T10:23:17.311Z,95289.28
2018-06-08T10:25:46.980Z,95285.05
2018-06-08T10:28:16.999Z,95288.42
2018-06-08T10:30:47.043Z,95291.76
2018-06-08T10:33:16.989Z,95290.06
2018-06-08T10:35:47.337Z,95299.22
2018-06-08T10:38:17.336Z,95290.11
2018-06-08T10:40:47.367Z,95288.14
2018-06-08T10:43:17.375Z,95282.13
2018-06-08T10:45:47.385Z,95277.95
2018-06-08T10:48:17.367Z,95275.01
2018-06-08T10:50:47.401Z,95271.06
2018-06-08T10:53:17.397Z,95272.42
2018-06-08T10:55:47.460Z,95270.50
2018-06-08T10:58:17.487Z,95260.39
2018-06-08T11:00:47.525Z,95220.25
2018-06-08T11:03:17.153Z,95265.97
2018-06-08T11:05:47.192Z,95262.55
2018-06-08T11:08:17.431Z,95260.17
2018-06-08T11:10:48.208Z,95250.19
2018-06-08T11:13:18.269Z,95251.19
2018-06-08T11:15:48.282Z,95248.61
2018-06-08T11:18:18.885Z,95238.70
2018-06-08T11:20:48.929Z,95231.42
2018-06-08T11:23:18.949Z,95233.67
2018-06-08T11:25:49.382Z,95227.52
2018-06-08T11:28:19.463Z,95225.85
2018-06-08T11:30:49.435Z,95221.96
2018-06-08T11:33:19.428Z,95221.66
2018-06-08T11:35:49.918Z,95215.42
2018-06-08T11:38:19.967Z,95213.73
2018-06-08T11:40:49.967Z,95219.44
2018-06-08T11:43:19.957Z,95209.68
2018-06-08T11:45:50.009Z,95210.34
2018-06-08T11:48:19.988Z,95212.23
2018-06-08T11:50:49.971Z,95208.39
2018-06-08T11:53:20.076Z,95203.40
2018-06-08T11:55:50.370Z,95194.53
2018-06-08T11:58:20.476Z,95182.23
2018-06-08T12:00:50.899Z,95191.80
2018-06-08T12:03:21.216Z,95187.55
2018-06-08T12:05:51.605Z,95183.47
2018-06-08T12:08:21.756Z,95181.41
2018-06-08T12:10:52.152Z,95174.70
2018-06-08T12:13:22.345Z,95174.66
2018-06-08T12:15:52.556Z,95174.21
2018-06-08T12:18:22.807Z,95166.58
2018-06-08T12:20:52.914Z,95166.49
2018-06-08T12:23:23.294Z,95166.49
2018-06-08T12:25:54.877Z,95162.73
2018-06-08T12:28:25.300Z,95155.06
2018-06-08T12:30:55.640Z,95157.11
2018-06-08T12:33:25.792Z,95151.17
2018-06-08T12:35:56.142Z,95147.88
2018-06-08T12:38:26.812Z,95153.23
2018-06-08T12:40:57.143Z,95151.86
2018-06-08T12:43:27.284Z,95155.80
2018-06-08T12:45:57.596Z,95151.45
2018-06-08T12:48:28.042Z,95146.77
2018-06-08T12:50:58.558Z,95143.77
2018-06-08T12:53:28.915Z,95138.60
2018-06-08T12:55:59.074Z,95133.81
2018-06-08T12:58:29.152Z,95130.42
2018-06-08T13:00:59.223Z,95134.20
2018-06-08T13:03:29.232Z,95134.91
2018-06-08T13:06:00.350Z,95135.75
2018-06-08T13:08:30.509Z,95139.44
2018-06-08T13:11:01.149Z,95129.47
2018-06-08T13:13:31.681Z,95124.83
2018-06-08T13:16:02.763Z,95130.19
2018-06-08T13:18:32.891Z,95127.23
2018-06-08T13:21:03.010Z,95135.23
2018-06-08T13:23:33.308Z,95131.24
2018-06-08T13:26:03.716Z,95125.02
2018-06-08T13:28:34.513Z,95121.36
2018-06-08T13:31:04.867Z,95119.55
2018-06-08T13:33:35.024Z,95118.39
2018-06-08T13:36:05.013Z,95116.59
2018-06-08T13:38:35.121Z,95114.73
2018-06-08T13:41:05.347Z,95108.62
2018-06-08T13:43:35.459Z,95104.45
2018-06-08T13:46:19.487Z,95106.59
2018-06-08T13:48:49.720Z,95095.83
2018-06-08T13:51:19.932Z,95094.61
2018-06-08T13:53:49.592Z,95098.24
2018-06-08T13:56:19.677Z,95094.85
2018-06-08T13:58:50.049Z,95086.85
2018-06-08T14:01:20.448Z,95087.98
2018-06-08T14:03:50.490Z,95084.11
2018-06-08T14:06:20.500Z,95076.47
2018-06-08T14:08:50.474Z,95069.63
2018-06-08T14:11:20.571Z,95070.23
2018-06-08T14:13:50.550Z,95064.80
2018-06-08T14:16:20.563Z,95070.31
2018-06-08T14:18:50.559Z,95057.11
2018-06-08T14:21:20.543Z,95059.33
2018-06-08T14:23:50.530Z,95052.72
2018-06-08T14:26:20.584Z,95051.95
2018-06-08T14:28:50.594Z,95045.88
2018-06-08T14:31:20.651Z,95050.84
2018-06-08T14:33:51.250Z,95051.77
2018-06-08T14:36:21.261Z,95055.56
2018-06-08T14:38:51.269Z,95050.84
2018-06-08T14:41:21.281Z,95055.72
2018-06-08T14:43:50.896Z,95049.83
2018-06-08T14:46:21.015Z,95050.27
2018-06-08T14:48:51.084Z,95054.69
2018-06-08T14:51:21.111Z,95053.48
2018-06-08T14:53:51.138Z,95059.84
2018-06-08T14:56:21.190Z,95061.64
2018-06-08T14:58:50.776Z,95053.87
2018-06-08T15:01:20.771Z,95055.93
2018-06-08T15:03:50.751Z,95048.62
2018-06-08T15:06:20.778Z,95045.34
2018-06-08T15:08:50.797Z,95036.66
2018-06-08T15:11:20.866Z,95035.86
2018-06-08T15:13:50.838Z,95034.52
2018-06-08T15:16:21.110Z,95033.89
2018-06-08T15:18:51.265Z,95035.48
2018-06-08T15:21:21.214Z,95032.66
2018-06-08T15:23:50.853Z,95039.83
2018-06-08T15:26:20.907Z,95029.36
2018-06-08T15:28:50.854Z,95037.33
2018-06-08T15:31:20.904Z,95030.28
2018-06-08T15:33:50.949Z,95028.08
2018-06-08T15:36:20.972Z,95021.84
2018-06-08T15:38:51.007Z,95029.34
2018-06-08T15:41:21.055Z,95028.89
2018-06-08T15:43:51.069Z,95031.40
2018-06-08T15:46:21.574Z,95028.45
2018-06-08T15:48:51.692Z,95023.07
2018-06-08T15:51:22.316Z,95035.14
2018-06-08T15:53:52.288Z,95027.97
2018-06-08T15:56:21.946Z,95030.83
2018-06-08T15:58:51.964Z,95015.67
2018-06-08T16:01:22.038Z,95016.34
2018-06-08T16:03:52.016Z,95002.68
2018-06-08T16:06:22.036Z,95000.63
2018-06-08T16:08:52.057Z,94995.28
2018-06-08T16:11:22.061Z,94997.01
2018-06-08T16:13:52.096Z,94989.27
2018-06-08T16:16:22.070Z,94986.58
2018-06-08T16:18:52.090Z,94987.36
2018-06-08T16:21:21.695Z,94985.70
2018-06-08T16:23:51.726Z,94991.38
2018-06-08T16:26:21.743Z,95004.02
2018-06-08T16:28:52.597Z,95016.53
2018-06-08T16:31:22.586Z,95015.62
2018-06-08T16:33:52.593Z,95017.90
2018-06-08T16:36:22.619Z,95036.11
2018-06-08T16:38:52.618Z,95032.57
2018-06-08T16:41:22.607Z,95035.55
2018-06-08T16:43:52.623Z,95037.57
2018-06-08T16:46:22.600Z,95043.85
2018-06-08T16:48:52.571Z,95049.30
2018-06-08T16:51:22.554Z,95043.39
2018-06-08T16:53:52.225Z,95044.20
2018-06-08T16:56:22.232Z,95044.41
2018-06-08T16:58:52.338Z,95056.04
2018-06-08T17:01:22.340Z,95056.70
2018-06-08T17:03:52.366Z,95062.39
2018-06-08T17:06:22.384Z,95065.98
2018-06-08T17:08:52.456Z,95059.72
2018-06-08T17:11:22.454Z,95057.34
2018-06-08T17:13:52.509Z,95060.84
2018-06-08T17:16:22.507Z,95050.12
2018-06-08T17:18:52.559Z,95051.49
2018-06-08T17:21:22.634Z,95047.05
2018-06-08T17:23:52.843Z,95049.33
2018-06-08T17:26:22.790Z,95045.02
2018-06-08T17:28:52.869Z,95034.77
2018-06-08T17:31:22.490Z,95032.03
2018-06-08T17:33:52.627Z,95027.00
2018-06-08T17:36:23.274Z,95010.97
2018-06-08T17:38:53.362Z,95010.63
2018-06-08T17:41:23.362Z,95006.08
2018-06-08T17:43:53.403Z,95007.16
2018-06-08T17:46:23.431Z,95007.83
2018-06-08T17:48:54.238Z,95023.31
2018-06-08T17:51:24.510Z,95056.63
2018-06-08T17:53:54.895Z,95079.11
2018-06-08T17:56:24.987Z,95087.61
2018-06-08T17:58:55.047Z,95100.92
2018-06-08T18:01:25.126Z,95104.45
2018-06-08T18:03:55.218Z,95110.91
2018-06-08T18:06:25.460Z,95124.05
2018-06-08T18:08:55.596Z,95150.81
2018-06-08T18:11:25.647Z,95156.76
2018-06-08T18:13:56.312Z,95157.35
2018-06-08T18:16:27.286Z,95156.36
2018-06-08T18:18:57.330Z,95155.36
2018-06-08T18:21:27.436Z,95172.69
2018-06-08T18:23:57.744Z,95176.89
2018-06-08T18:26:28.948Z,95184.20
2018-06-08T18:28:59.148Z,95192.84
2018-06-08T18:31:29.232Z,95185.72
2018-06-08T18:33:59.297Z,95195.07
2018-06-08T18:36:31.547Z,95200.20
2018-06-08T18:39:01.667Z,95197.21
2018-06-08T18:41:31.686Z,95185.96
2018-06-08T18:44:01.725Z,95186.05
2018-06-08T18:46:32.456Z,95189.33
2018-06-08T18:49:02.509Z,95191.45
2018-06-08T18:51:32.611Z,95188.48
2018-06-08T18:54:02.595Z,95197.17
2018-06-08T18:56:32.662Z,95192.97
2018-06-08T18:59:02.634Z,95184.27
2018-06-08T19:01:32.246Z,95175.27
2018-06-08T19:04:01.846Z,95163.03
2018-06-08T19:06:31.904Z,95152.30
2018-06-08T19:09:01.995Z,95150.82
2018-06-08T19:11:32.447Z,95156.83
2018-06-08T19:14:02.506Z,95169.63
2018-06-08T19:16:34.888Z,95167.51
2018-06-08T19:19:04.633Z,95174.33
2018-06-08T19:21:34.261Z,95163.93
2018-06-08T19:24:04.295Z,95160.85
2018-06-08T19:26:34.291Z,95166.52
2018-06-08T19:29:04.353Z,95165.20
2018-06-08T19:31:34.510Z,95168.57
2018-06-08T19:34:04.523Z,95160.59
2018-06-08T19:36:34.525Z,95152.02
2018-06-08T19:39:06.527Z,95146.11
2018-06-08T19:41:36.467Z,95139.61
2018-06-08T19:44:06.493Z,95132.62
2018-06-08T19:46:36.605Z,95134.81
2018-06-08T19:49:06.249Z,95127.80
2018-06-08T19:51:36.428Z,95129.08
2018-06-08T19:54:06.619Z,95138.20
2018-06-08T19:56:36.795Z,95147.91
2018-06-08T19:59:06.963Z,95153.61
2018-06-08T20:01:37.147Z,95160.17
2018-06-08T20:04:07.219Z,95152.67
2018-06-08T20:06:37.456Z,95152.25
2018-06-08T20:09:09.149Z,95151.77
2018-06-08T20:11:39.250Z,95154.20
2018-06-08T20:14:10.036Z,95157.73
2018-06-08T20:16:40.531Z,95160.94
2018-06-08T20:19:12.107Z,95163.91
2018-06-08T20:21:42.773Z,95165.31
2018-06-08T20:24:13.290Z,95167.41
2018-06-08T20:26:43.651Z,95163.10
2018-06-08T20:29:14.436Z,95166.52
2018-06-08T20:31:44.825Z,95162.98
2018-06-08T20:34:15.043Z,95169.95
2018-06-08T20:36:45.442Z,95167.25
2018-06-08T20:39:15.776Z,95164.55
2018-06-08T20:41:46.304Z,95156.19
2018-06-08T20:44:16.468Z,95144.85
2018-06-08T20:46:46.776Z,95142.36
2018-06-08T20:49:16.985Z,95142.36
2018-06-08T20:51:47.143Z,95150.45
2018-06-08T20:54:17.201Z,95152.92
2018-06-08T20:56:57.168Z,95158.70
2018-06-08T20:59:27.351Z,95152.28
2018-06-08T21:01:57.587Z,95150.81
2018-06-08T21:04:27.707Z,95147.38
2018-06-08T21:06:57.747Z,95140.17
2018-06-08T21:09:27.827Z,95149.64
2018-06-08T21:11:57.848Z,95154.80
2018-06-08T21:14:27.910Z,95156.20
2018-06-08T21:16:57.943Z,95157.01
2018-06-08T21:19:28.044Z,95164.83
2018-06-08T21:21:58.184Z,95164.02
2018-06-08T21:24:28.265Z,95161.84
2018-06-08T21:26:58.853Z,95156.20
2018-06-08T21:29:28.949Z,95155.36
2018-06-08T21:31:58.784Z,95153.42
2018-06-08T21:34:28.866Z,95151.80
2018-06-08T21:36:58.920Z,95158.06
2018-06-08T21:39:29.081Z,95163.45
2018-06-08T21:41:59.178Z,95171.27
2018-06-08T21:44:29.364Z,95165.31
2018-06-08T21:46:59.547Z,95169.55
2018-06-08T21:49:30.155Z,95169.22
2018-06-08T21:52:01.015Z,95171.38
2018-06-08T21:54:31.342Z,95175.13
2018-06-08T21:57:01.795Z,95173.21
2018-06-08T21:59:31.858Z,95172.91
2018-06-08T22:02:01.936Z,95167.78
2018-06-08T22:04:32.043Z,95163.53
2018-06-08T22:07:02.042Z,95158.67
2018-06-08T22:09:32.085Z,95156.00
2018-06-08T22:12:02.152Z,95157.08
2018-06-08T22:14:31.816Z,95158.13
2018-06-08T22:17:01.791Z,95158.34
2018-06-08T22:19:31.853Z,95154.51
2018-06-08T22:22:01.850Z,95155.59
2018-06-08T22:24:31.902Z,95146.68
2018-06-08T22:27:01.848Z,95142.09
2018-06-08T22:29:31.823Z,95134.18
2018-06-08T22:32:01.789Z,95132.34
2018-06-08T22:34:31.782Z,95134.98
2018-06-08T22:37:01.755Z,95129.77
2018-06-08T22:39:32.121Z,95131.59
2018-06-08T22:42:02.102Z,95133.69
2018-06-08T22:44:32.200Z,95126.64
2018-06-08T22:47:02.154Z,95132.00
2018-06-08T22:49:32.157Z,95137.91
2018-06-08T22:52:02.247Z,95141.34
2018-06-08T22:54:32.224Z,95136.66
2018-06-08T22:57:02.522Z,95123.73
2018-06-08T22:59:32.544Z,95135.28
2018-06-08T23:02:02.622Z,95138.45
2018-06-08T23:04:32.602Z,95141.85
2018-06-08T23:07:02.173Z,95143.13
2018-06-08T23:09:32.184Z,95141.41
2018-06-08T23:12:02.131Z,95132.14
2018-06-08T23:14:31.723Z,95135.05
2018-06-08T23:17:01.698Z,95136.31
2018-06-08T23:19:31.696Z,95144.92
2018-06-08T23:22:01.261Z,95135.94
2018-06-08T23:24:31.257Z,95128.98
2018-06-08T23:27:01.232Z,95130.87
2018-06-08T23:29:30.835Z,95129.72
2018-06-08T23:32:00.798Z,95132.89
2018-06-08T23:34:30.815Z,95134.23
2018-06-08T23:37:00.757Z,95137.41
2018-06-08T23:39:30.759Z,95137.36
2018-06-08T23:42:00.697Z,95137.41
2018-06-08T23:44:30.674Z,95136.01
2018-06-08T23:47:00.273Z,95133.31
2018-06-08T23:49:30.237Z,95128.75
2018-06-08T23:52:00.213Z,95131.19
2018-06-08T23:54:30.164Z,95132.61
2018-06-08T23:57:00.197Z,95120.73
2018-06-08T23:59:30.155Z,95116.21
